CDT,Max TemperatureF,Mean TemperatureF,Min TemperatureF,Max Dew PointF,MeanDew PointF,Min DewpointF,Max Humidity, Mean Humidity, Min Humidity, Max Sea Level PressureIn, Mean Sea Level PressureIn, Min Sea Level PressureIn, Max VisibilityMiles, Mean VisibilityMiles, Min VisibilityMiles, Max Wind SpeedMPH, Mean Wind SpeedMPH, Max Gust SpeedMPH,PrecipitationIn, CloudCover, Events, WindDirDegrees
2012-9-1,93,86,78,78,74,68,88,68,47,30.06,30.00,29.96,10,10,5,30,12,38,0.08,1,,151
2012-9-2,99,86,73,76,72,65,100,67,33,30.04,29.98,29.92,10,9,5,23,12,32,0.00,0,,151
2012-9-3,100,87,73,77,73,68,94,66,38,29.99,29.94,29.87,10,10,7,24,13,31,0.00,2,,154
2012-9-4,100,87,74,76,72,67,94,66,38,29.95,29.90,29.84,10,10,8,23,12,31,0.00,0,,155
2012-9-5,100,87,74,76,73,67,94,65,35,29.90,29.86,29.79,10,10,10,22,13,31,0.00,1,,152
2012-9-6,100,88,75,77,72,67,94,65,35,29.94,29.88,29.83,10,10,6,20,10,29,0.00,1,,150
2012-9-7,100,86,72,76,71,66,94,65,35,29.91,29.85,29.78,10,10,8,21,10,24,0.00,1,,162
2012-9-8,102,87,72,75,72,60,100,64,27,29.96,29.88,29.84,10,10,7,22,7,29,0.00,0,,150
2012-9-9,91,81,71,74,71,66,100,75,50,30.07,30.01,29.96,10,9,4,20,8,23,0.66,4,Rain-Thunderstorm,33
2012-9-10,92,80,67,68,64,59,93,64,34,30.08,30.02,29.97,10,10,8,18,7,25,0.00,0,,15
2012-9-11,96,82,67,73,68,64,93,66,39,30.02,29.98,29.92,10,10,10,21,7,24,0.00,0,,75
2012-9-12,98,87,75,76,72,68,94,67,40,30.00,29.96,29.89,10,10,10,28,13,36,0.00,2,,152
2012-9-13,93,83,72,75,70,66,94,69,44,30.06,29.99,29.93,10,10,8,30,10,36,0.03,2,Rain-Thunderstorm,151
2012-9-14,91,82,73,71,69,65,87,67,47,30.11,30.06,30.01,10,10,10,20,8,25,T,2,Rain,30
2012-9-15,90,82,73,72,70,68,93,73,52,30.11,30.07,30.00,10,10,9,22,12,25,T,4,,7
2012-9-16,92,82,72,72,70,64,93,67,41,30.04,29.97,29.88,10,10,10,18,7,21,0.00,4,,352
2012-9-17,93,81,68,72,69,64,97,69,41,29.93,29.86,29.75,10,9,4,20,7,24,0.00,1,,6
2012-9-18,93,83,73,75,70,66,94,71,47,30.01,29.91,29.85,10,10,8,23,9,29,T,3,Rain,76
2012-9-19,94,82,69,69,66,61,90,63,36,30.08,30.02,29.97,10,10,10,20,8,30,T,2,,27
2012-9-20,94,80,66,69,63,54,93,61,28,30.05,30.00,29.94,10,10,5,20,6,24,0.00,1,,41
2012-9-21,93,77,61,63,60,55,90,60,30,29.99,29.95,29.89,10,10,10,17,7,28,0.00,0,,32
2012-9-22,95,80,65,70,65,60,87,63,38,30.06,30.00,29.96,10,10,10,22,7,28,0.00,2,,11
2012-9-23,94,82,70,73,70,67,90,69,47,30.12,30.08,30.04,10,10,9,20,6,25,0.04,2,Rain,87
2012-9-24,95,83,70,72,68,64,100,70,39,30.12,30.06,29.98,10,10,10,20,9,32,0.00,1,,85
2012-9-25,96,83,69,72,69,66,97,71,44,30.03,29.96,29.90,10,10,9,25,10,29,0.00,1,,138
2012-9-26,95,84,73,73,71,69,87,67,46,29.97,29.93,29.88,10,10,10,22,11,30,0.00,2,,126
2012-9-27,93,84,74,77,73,68,94,75,55,30.00,29.95,29.90,10,10,5,31,9,37,0.17,1,Rain,106
2012-9-28,90,82,74,76,74,72,94,77,59,29.97,29.91,29.83,10,9,2,28,10,33,0.37,2,Rain,136
2012-9-29,96,87,77,77,74,70,94,70,46,29.87,29.79,29.68,10,10,9,25,12,31,T,2,Thunderstorm,179
2012-9-30,93,81,69,73,63,60,84,60,36,29.87,29.81,29.75,10,10,10,25,13,32,0.00,2,,319